Aeroporto :
LOGIN :

Iscrizione | Disclaimer

   EN    FR    IT 

 










Sommario :    VFR   VFR Marginale   IFR   IFR Intensivo   IFR Molto Intensivo
Visibilità : 
Base nubi : 
>= 8 km
>= 3000ft
5 / 8 km
1000 / 3000 ft
1500m / 5 km
500 / 1000 ft
800 / 1500m
200 / 500 ft
< 800m
< 200 ft
Simboli :   Temporali  Nebbia  Neve Forte  Precipitazioni Forti  Vento > 20 kt
SIGMETs :   Varie  Temporali  Ghiacco  Turbolenza  Onda orograficha  Ceneri Vulcaniche







- Altitudine del aeroporto : 614 ft
- Codice IATA : CRL


EBCI - Charleroi

ULTIMO METAR :
  • 200050Z 33005KT 290V010 0500 R24/1400U FG -DZ SCT001 BKN002 10/10 Q1007 NOSIG

METARs OBSOLETI :
  • 200020Z 33005KT 300V360 0300 R24/1300D FG BKN001 10/10 Q1007 NOSIG
  • 192350Z 32006KT 280V020 0500 R24/1500N FG -DZ SCT001 BKN002 10/10 Q1008 NOSIG
  • 192320Z 29004KT 260V330 0200 R24/0550N FG -DZ BKN001 10/10 Q1007 NOSIG
  • 192250Z 33005KT 300V010 0300 R24/1200U FG BKN001 11/10 Q1008 NOSIG
  • 192220Z 32005KT 290V360 0300 R24/0700U FG BKN001 11/10 Q1008 NOSIG

TAF TAF EBCI
Valido dal 20 a 00 ore il 21 a 06 ore UTC


192310Z 2000/2106 31007KT 3500 BR BKN005
TEMPO 2000/2106 1500 -DZ BR BKN003
PROB40 2000/2008 0200 FG BKN001
PROB30
TEMPO 2013/2016 6000 NSW BKN012
PROB30
TEMPO 2100/2106 0200 FG BKN001
Nessun NOTAM noto per questo aeroporto.



MetMap, La meteo Aeronautica in un colpo d'occhio ! - Copyright ORBIFLY Dicembre 2007 - Disclaimer

ORBIFLY MET'MAP TEAM :

Programmazione e sviluppo : Alexandra Zaïnal
Concezione e sviluppo : Baudouin d'Aumeries
Co-Programmazione e sviluppo : Marc-Olivier Méhu
Supporto tecnico e logistico : Manuel Goepfert
Aiuto per la traduzione : Arnaldo La Scala

Contatto : metmap@orbifly.com




FONTI E CREDITI :

   NOAA